sensor_id;sensor_type;location;lat;lon;timestamp;temperature;humidity
42019;DHT22;27703;51.980;5.848;2024-01-25T00:01:28;8.00;99.90
42019;DHT22;27703;51.980;5.848;2024-01-25T00:03:54;8.00;99.90
42019;DHT22;27703;51.980;5.848;2024-01-25T00:06:19;7.90;99.90
42019;DHT22;27703;51.980;5.848;2024-01-25T00:08:46;7.80;99.90
42019;DHT22;27703;51.980;5.848;2024-01-25T00:11:12;7.80;99.90
42019;DHT22;27703;51.980;5.848;2024-01-25T00:13:37;7.80;99.90
42019;DHT22;27703;51.980;5.848;2024-01-25T00:16:04;7.70;99.90
42019;DHT22;27703;51.980;5.848;2024-01-25T00:18:30;7.70;99.90
42019;DHT22;27703;51.980;5.848;2024-01-25T00:20:55;7.70;99.90
42019;DHT22;27703;51.980;5.848;2024-01-25T00:23:21;7.60;99.90
42019;DHT22;27703;51.980;5.848;2024-01-25T00:25:46;7.60;99.90
42019;DHT22;27703;51.980;5.848;2024-01-25T00:28:12;7.60;99.90
42019;DHT22;27703;51.980;5.848;2024-01-25T00:30:38;7.60;99.90
42019;DHT22;27703;51.980;5.848;2024-01-25T00:33:04;7.50;99.90
42019;DHT22;27703;51.980;5.848;2024-01-25T00:35:30;7.50;99.90
42019;DHT22;27703;51.980;5.848;2024-01-25T00:37:56;7.50;99.90
42019;DHT22;27703;51.980;5.848;2024-01-25T00:40:22;7.40;99.90
42019;DHT22;27703;51.980;5.848;2024-01-25T00:42:48;7.40;99.90
42019;DHT22;27703;51.980;5.848;2024-01-25T00:45:18;7.30;99.90
42019;DHT22;27703;51.980;5.848;2024-01-25T00:47:44;7.30;99.90
42019;DHT22;27703;51.980;5.848;2024-01-25T00:50:11;7.20;99.90
42019;DHT22;27703;51.980;5.848;2024-01-25T00:52:36;7.20;99.90
42019;DHT22;27703;51.980;5.848;2024-01-25T00:55:03;7.20;99.90
42019;DHT22;27703;51.980;5.848;2024-01-25T00:57:29;7.20;99.90
42019;DHT22;27703;51.980;5.848;2024-01-25T00:59:54;7.10;99.90
42019;DHT22;27703;51.980;5.848;2024-01-25T01:02:22;7.10;99.90
42019;DHT22;27703;51.980;5.848;2024-01-25T01:04:48;7.00;99.90
42019;DHT22;27703;51.980;5.848;2024-01-25T01:07:14;7.00;99.90
42019;DHT22;27703;51.980;5.848;2024-01-25T01:09:39;6.90;99.90
42019;DHT22;27703;51.980;5.848;2024-01-25T01:12:06;6.90;99.90
42019;DHT22;27703;51.980;5.848;2024-01-25T01:14:32;6.90;99.90
42019;DHT22;27703;51.980;5.848;2024-01-25T01:16:57;6.80;99.90
42019;DHT22;27703;51.980;5.848;2024-01-25T01:19:23;6.80;99.90
42019;DHT22;27703;51.980;5.848;2024-01-25T01:21:48;6.70;99.90
42019;DHT22;27703;51.980;5.848;2024-01-25T01:24:14;6.70;99.90
42019;DHT22;27703;51.980;5.848;2024-01-25T01:26:39;6.70;99.90
42019;DHT22;27703;51.980;5.848;2024-01-25T01:29:07;6.70;99.90
42019;DHT22;27703;51.980;5.848;2024-01-25T01:31:33;6.60;99.90
42019;DHT22;27703;51.980;5.848;2024-01-25T01:33:59;6.60;99.90
42019;DHT22;27703;51.980;5.848;2024-01-25T01:36:24;6.60;99.90
42019;DHT22;27703;51.980;5.848;2024-01-25T01:38:50;6.60;99.90
42019;DHT22;27703;51.980;5.848;2024-01-25T01:41:15;6.50;99.90
42019;DHT22;27703;51.980;5.848;2024-01-25T01:43:41;6.50;99.90
42019;DHT22;27703;51.980;5.848;2024-01-25T01:46:10;6.50;99.90
42019;DHT22;27703;51.980;5.848;2024-01-25T01:48:38;6.50;99.90
42019;DHT22;27703;51.980;5.848;2024-01-25T01:51:05;6.40;99.90
42019;DHT22;27703;51.980;5.848;2024-01-25T01:53:32;6.40;99.90
42019;DHT22;27703;51.980;5.848;2024-01-25T01:55:57;6.30;99.90
42019;DHT22;27703;51.980;5.848;2024-01-25T01:58:24;6.30;99.90
42019;DHT22;27703;51.980;5.848;2024-01-25T02:00:52;6.30;99.90
42019;DHT22;27703;51.980;5.848;2024-01-25T02:03:19;6.30;99.90
42019;DHT22;27703;51.980;5.848;2024-01-25T02:05:45;6.30;99.90
42019;DHT22;27703;51.980;5.848;2024-01-25T02:08:10;6.30;99.90
42019;DHT22;27703;51.980;5.848;2024-01-25T02:10:36;6.30;99.90
42019;DHT22;27703;51.980;5.848;2024-01-25T02:13:01;6.20;99.90
42019;DHT22;27703;51.980;5.848;2024-01-25T02:15:27;6.20;99.90
42019;DHT22;27703;51.980;5.848;2024-01-25T02:17:52;6.20;99.90
42019;DHT22;27703;51.980;5.848;2024-01-25T02:20:18;6.10;99.90
42019;DHT22;27703;51.980;5.848;2024-01-25T02:22:44;6.10;99.90
42019;DHT22;27703;51.980;5.848;2024-01-25T02:25:09;6.10;99.90
42019;DHT22;27703;51.980;5.848;2024-01-25T02:27:35;6.10;99.90
42019;DHT22;27703;51.980;5.848;2024-01-25T02:30:07;6.00;99.90
42019;DHT22;27703;51.980;5.848;2024-01-25T02:32:33;6.00;99.90
42019;DHT22;27703;51.980;5.848;2024-01-25T02:34:59;6.00;99.90
42019;DHT22;27703;51.980;5.848;2024-01-25T02:37:25;5.90;99.90
42019;DHT22;27703;51.980;5.848;2024-01-25T02:39:52;5.90;99.90
42019;DHT22;27703;51.980;5.848;2024-01-25T02:42:18;5.90;99.90
42019;DHT22;27703;51.980;5.848;2024-01-25T02:44:44;5.90;99.90
42019;DHT22;27703;51.980;5.848;2024-01-25T02:47:09;5.90;99.90
42019;DHT22;27703;51.980;5.848;2024-01-25T02:49:35;5.90;99.90
42019;DHT22;27703;51.980;5.848;2024-01-25T02:52:01;5.90;99.90
42019;DHT22;27703;51.980;5.848;2024-01-25T02:54:26;5.90;99.90
42019;DHT22;27703;51.980;5.848;2024-01-25T02:56:52;5.80;99.90
42019;DHT22;27703;51.980;5.848;2024-01-25T02:59:17;5.80;99.90
42019;DHT22;27703;51.980;5.848;2024-01-25T03:01:43;5.90;99.90
42019;DHT22;27703;51.980;5.848;2024-01-25T03:04:10;5.80;99.90
42019;DHT22;27703;51.980;5.848;2024-01-25T03:06:35;5.80;99.90
42019;DHT22;27703;51.980;5.848;2024-01-25T03:09:01;5.80;99.90
42019;DHT22;27703;51.980;5.848;2024-01-25T03:11:30;5.80;99.90
42019;DHT22;27703;51.980;5.848;2024-01-25T03:13:55;5.80;99.90
42019;DHT22;27703;51.980;5.848;2024-01-25T03:16:21;5.80;99.90
42019;DHT22;27703;51.980;5.848;2024-01-25T03:18:46;5.80;99.90
42019;DHT22;27703;51.980;5.848;2024-01-25T03:21:12;5.70;99.90
42019;DHT22;27703;51.980;5.848;2024-01-25T03:23:38;5.70;99.90
42019;DHT22;27703;51.980;5.848;2024-01-25T03:26:04;5.60;99.90
42019;DHT22;27703;51.980;5.848;2024-01-25T03:28:29;5.60;99.90
42019;DHT22;27703;51.980;5.848;2024-01-25T03:30:55;5.60;99.90
42019;DHT22;27703;51.980;5.848;2024-01-25T03:33:20;5.60;99.90
42019;DHT22;27703;51.980;5.848;2024-01-25T03:35:46;5.60;99.90
42019;DHT22;27703;51.980;5.848;2024-01-25T03:38:12;5.60;99.90
42019;DHT22;27703;51.980;5.848;2024-01-25T03:40:39;5.60;99.90
42019;DHT22;27703;51.980;5.848;2024-01-25T03:43:05;5.60;99.90
42019;DHT22;27703;51.980;5.848;2024-01-25T03:45:30;5.70;99.90
42019;DHT22;27703;51.980;5.848;2024-01-25T03:47:58;5.70;99.90
42019;DHT22;27703;51.980;5.848;2024-01-25T03:50:23;5.60;99.90
42019;DHT22;27703;51.980;5.848;2024-01-25T03:52:49;5.60;99.90
42019;DHT22;27703;51.980;5.848;2024-01-25T03:55:14;5.60;99.90
42019;DHT22;27703;51.980;5.848;2024-01-25T03:57:40;5.60;99.90
42019;DHT22;27703;51.980;5.848;2024-01-25T04:00:08;5.60;99.90
42019;DHT22;27703;51.980;5.848;2024-01-25T04:02:34;5.60;99.90
42019;DHT22;27703;51.980;5.848;2024-01-25T04:04:59;5.60;99.90
42019;DHT22;27703;51.980;5.848;2024-01-25T04:07:25;5.60;99.90
42019;DHT22;27703;51.980;5.848;2024-01-25T04:09:51;5.60;99.90
42019;DHT22;27703;51.980;5.848;2024-01-25T04:12:16;5.60;99.90
42019;DHT22;27703;51.980;5.848;2024-01-25T04:14:42;5.60;99.90
42019;DHT22;27703;51.980;5.848;2024-01-25T04:17:07;5.60;99.90
42019;DHT22;27703;51.980;5.848;2024-01-25T04:19:33;5.60;99.90
42019;DHT22;27703;51.980;5.848;2024-01-25T04:21:58;5.50;99.90
42019;DHT22;27703;51.980;5.848;2024-01-25T04:24:24;5.50;99.90
42019;DHT22;27703;51.980;5.848;2024-01-25T04:26:49;5.50;99.90
42019;DHT22;27703;51.980;5.848;2024-01-25T04:29:15;5.50;99.90
42019;DHT22;27703;51.980;5.848;2024-01-25T04:31:44;5.50;99.90
42019;DHT22;27703;51.980;5.848;2024-01-25T04:34:11;5.40;99.90
42019;DHT22;27703;51.980;5.848;2024-01-25T04:36:37;5.40;99.90
42019;DHT22;27703;51.980;5.848;2024-01-25T04:39:03;5.40;99.90
42019;DHT22;27703;51.980;5.848;2024-01-25T04:41:28;5.30;99.90
42019;DHT22;27703;51.980;5.848;2024-01-25T04:43:54;5.30;99.90
42019;DHT22;27703;51.980;5.848;2024-01-25T04:46:19;5.30;99.90
42019;DHT22;27703;51.980;5.848;2024-01-25T04:48:45;5.30;99.90
42019;DHT22;27703;51.980;5.848;2024-01-25T04:51:15;5.30;99.90
42019;DHT22;27703;51.980;5.848;2024-01-25T04:53:41;5.30;99.90
42019;DHT22;27703;51.980;5.848;2024-01-25T04:56:07;5.20;99.90
42019;DHT22;27703;51.980;5.848;2024-01-25T04:58:32;5.20;99.90
42019;DHT22;27703;51.980;5.848;2024-01-25T05:00:58;5.20;99.90
42019;DHT22;27703;51.980;5.848;2024-01-25T05:03:23;5.10;99.90
42019;DHT22;27703;51.980;5.848;2024-01-25T05:05:49;5.10;99.90
42019;DHT22;27703;51.980;5.848;2024-01-25T05:08:15;5.00;99.90
42019;DHT22;27703;51.980;5.848;2024-01-25T05:10:40;5.00;99.90
42019;DHT22;27703;51.980;5.848;2024-01-25T05:13:06;5.00;99.90
42019;DHT22;27703;51.980;5.848;2024-01-25T05:15:32;4.90;99.90
42019;DHT22;27703;51.980;5.848;2024-01-25T05:17:58;4.90;99.90
42019;DHT22;27703;51.980;5.848;2024-01-25T05:20:24;4.90;99.90
42019;DHT22;27703;51.980;5.848;2024-01-25T05:22:53;4.90;99.90
42019;DHT22;27703;51.980;5.848;2024-01-25T05:25:19;4.90;99.90
42019;DHT22;27703;51.980;5.848;2024-01-25T05:27:44;4.90;99.90
42019;DHT22;27703;51.980;5.848;2024-01-25T05:30:10;4.90;99.90
42019;DHT22;27703;51.980;5.848;2024-01-25T05:32:36;4.80;99.90
42019;DHT22;27703;51.980;5.848;2024-01-25T05:35:03;4.80;99.90
42019;DHT22;27703;51.980;5.848;2024-01-25T05:37:29;4.70;99.90
42019;DHT22;27703;51.980;5.848;2024-01-25T05:39:54;4.60;99.90
42019;DHT22;27703;51.980;5.848;2024-01-25T05:42:20;4.60;99.90
42019;DHT22;27703;51.980;5.848;2024-01-25T05:44:45;4.60;99.90
42019;DHT22;27703;51.980;5.848;2024-01-25T05:47:11;4.60;99.90
42019;DHT22;27703;51.980;5.848;2024-01-25T05:49:36;4.60;99.90
42019;DHT22;27703;51.980;5.848;2024-01-25T05:52:02;4.60;99.90
42019;DHT22;27703;51.980;5.848;2024-01-25T05:54:27;4.60;99.90
42019;DHT22;27703;51.980;5.848;2024-01-25T05:56:53;4.50;99.90
42019;DHT22;27703;51.980;5.848;2024-01-25T05:59:18;4.50;99.90
42019;DHT22;27703;51.980;5.848;2024-01-25T06:01:44;4.50;99.90
42019;DHT22;27703;51.980;5.848;2024-01-25T06:04:10;4.50;99.90
42019;DHT22;27703;51.980;5.848;2024-01-25T06:06:35;4.50;99.90
42019;DHT22;27703;51.980;5.848;2024-01-25T06:09:01;4.40;99.90
42019;DHT22;27703;51.980;5.848;2024-01-25T06:11:26;4.40;99.90
42019;DHT22;27703;51.980;5.848;2024-01-25T06:13:52;4.40;99.90
42019;DHT22;27703;51.980;5.848;2024-01-25T06:16:17;4.40;99.90
42019;DHT22;27703;51.980;5.848;2024-01-25T06:18:43;4.40;99.90
42019;DHT22;27703;51.980;5.848;2024-01-25T06:21:09;4.40;99.90
42019;DHT22;27703;51.980;5.848;2024-01-25T06:23:34;4.40;99.90
42019;DHT22;27703;51.980;5.848;2024-01-25T06:26:00;4.40;99.90
42019;DHT22;27703;51.980;5.848;2024-01-25T06:28:26;4.30;99.90
42019;DHT22;27703;51.980;5.848;2024-01-25T06:30:51;4.30;99.90
42019;DHT22;27703;51.980;5.848;2024-01-25T06:33:17;4.20;99.90
42019;DHT22;27703;51.980;5.848;2024-01-25T06:35:42;4.20;99.90
42019;DHT22;27703;51.980;5.848;2024-01-25T06:38:08;4.20;99.90
42019;DHT22;27703;51.980;5.848;2024-01-25T06:40:33;4.20;99.90
42019;DHT22;27703;51.980;5.848;2024-01-25T06:42:59;4.10;99.90
42019;DHT22;27703;51.980;5.848;2024-01-25T06:45:24;4.10;99.90
42019;DHT22;27703;51.980;5.848;2024-01-25T06:47:50;4.00;99.90
42019;DHT22;27703;51.980;5.848;2024-01-25T06:50:16;4.00;99.90
42019;DHT22;27703;51.980;5.848;2024-01-25T06:52:41;4.00;99.90
42019;DHT22;27703;51.980;5.848;2024-01-25T06:55:07;4.00;99.90
42019;DHT22;27703;51.980;5.848;2024-01-25T06:57:32;4.10;99.90
42019;DHT22;27703;51.980;5.848;2024-01-25T06:59:58;4.10;99.90
42019;DHT22;27703;51.980;5.848;2024-01-25T07:02:24;4.20;99.90
42019;DHT22;27703;51.980;5.848;2024-01-25T07:04:49;4.10;99.90
42019;DHT22;27703;51.980;5.848;2024-01-25T07:07:18;4.10;99.90
42019;DHT22;27703;51.980;5.848;2024-01-25T07:09:43;4.00;99.90
42019;DHT22;27703;51.980;5.848;2024-01-25T07:12:09;3.90;99.90
42019;DHT22;27703;51.980;5.848;2024-01-25T07:14:34;3.90;99.90
42019;DHT22;27703;51.980;5.848;2024-01-25T07:17:00;3.90;99.90
42019;DHT22;27703;51.980;5.848;2024-01-25T07:19:25;3.90;99.90
42019;DHT22;27703;51.980;5.848;2024-01-25T07:21:51;3.80;99.90
42019;DHT22;27703;51.980;5.848;2024-01-25T07:24:16;3.80;99.90
42019;DHT22;27703;51.980;5.848;2024-01-25T07:26:42;3.80;99.90
42019;DHT22;27703;51.980;5.848;2024-01-25T07:29:08;3.80;99.90
42019;DHT22;27703;51.980;5.848;2024-01-25T07:31:33;3.80;99.90
42019;DHT22;27703;51.980;5.848;2024-01-25T07:33:59;3.80;99.90
42019;DHT22;27703;51.980;5.848;2024-01-25T07:36:24;3.90;99.90
42019;DHT22;27703;51.980;5.848;2024-01-25T07:38:50;3.80;99.90
42019;DHT22;27703;51.980;5.848;2024-01-25T07:41:16;3.80;99.90
42019;DHT22;27703;51.980;5.848;2024-01-25T07:43:42;3.80;99.90
42019;DHT22;27703;51.980;5.848;2024-01-25T07:46:08;3.80;99.90
42019;DHT22;27703;51.980;5.848;2024-01-25T07:48:33;3.80;99.90
42019;DHT22;27703;51.980;5.848;2024-01-25T07:50:59;3.90;99.90
42019;DHT22;27703;51.980;5.848;2024-01-25T07:53:25;4.00;99.90
42019;DHT22;27703;51.980;5.848;2024-01-25T07:55:50;4.00;99.90
42019;DHT22;27703;51.980;5.848;2024-01-25T07:58:16;4.10;99.90
42019;DHT22;27703;51.980;5.848;2024-01-25T08:00:41;4.10;99.90
42019;DHT22;27703;51.980;5.848;2024-01-25T08:03:08;4.20;99.90
42019;DHT22;27703;51.980;5.848;2024-01-25T08:05:33;4.20;99.90
42019;DHT22;27703;51.980;5.848;2024-01-25T08:07:59;4.20;99.90
42019;DHT22;27703;51.980;5.848;2024-01-25T08:10:25;4.20;99.90
42019;DHT22;27703;51.980;5.848;2024-01-25T08:12:50;4.20;99.90
42019;DHT22;27703;51.980;5.848;2024-01-25T08:15:16;4.30;99.90
42019;DHT22;27703;51.980;5.848;2024-01-25T08:17:42;4.30;99.90
42019;DHT22;27703;51.980;5.848;2024-01-25T08:20:08;4.30;99.90
42019;DHT22;27703;51.980;5.848;2024-01-25T08:22:34;4.40;99.90
42019;DHT22;27703;51.980;5.848;2024-01-25T08:25:00;4.40;99.90
42019;DHT22;27703;51.980;5.848;2024-01-25T08:27:25;4.50;99.90
42019;DHT22;27703;51.980;5.848;2024-01-25T08:29:51;4.40;99.90
42019;DHT22;27703;51.980;5.848;2024-01-25T08:32:17;4.50;99.90
42019;DHT22;27703;51.980;5.848;2024-01-25T08:34:42;4.40;99.90
42019;DHT22;27703;51.980;5.848;2024-01-25T08:37:08;4.50;99.90
42019;DHT22;27703;51.980;5.848;2024-01-25T08:39:33;4.60;99.90
42019;DHT22;27703;51.980;5.848;2024-01-25T08:41:59;4.60;99.90
42019;DHT22;27703;51.980;5.848;2024-01-25T08:44:27;4.60;99.90
42019;DHT22;27703;51.980;5.848;2024-01-25T08:46:53;4.70;99.90
42019;DHT22;27703;51.980;5.848;2024-01-25T08:49:18;4.70;99.90
42019;DHT22;27703;51.980;5.848;2024-01-25T08:51:44;4.70;99.90
42019;DHT22;27703;51.980;5.848;2024-01-25T08:54:09;4.70;99.90
42019;DHT22;27703;51.980;5.848;2024-01-25T08:56:35;4.70;99.90
42019;DHT22;27703;51.980;5.848;2024-01-25T08:59:00;4.80;99.90
42019;DHT22;27703;51.980;5.848;2024-01-25T09:01:26;4.80;99.90
42019;DHT22;27703;51.980;5.848;2024-01-25T09:03:52;4.90;99.90
42019;DHT22;27703;51.980;5.848;2024-01-25T09:06:18;4.90;99.90
42019;DHT22;27703;51.980;5.848;2024-01-25T09:08:43;4.90;99.90
42019;DHT22;27703;51.980;5.848;2024-01-25T09:11:09;5.00;99.90
42019;DHT22;27703;51.980;5.848;2024-01-25T09:13:34;5.00;99.90
42019;DHT22;27703;51.980;5.848;2024-01-25T09:16:00;5.10;99.90
42019;DHT22;27703;51.980;5.848;2024-01-25T09:18:25;5.10;99.90
42019;DHT22;27703;51.980;5.848;2024-01-25T09:20:51;5.20;99.90
42019;DHT22;27703;51.980;5.848;2024-01-25T09:23:16;5.30;99.90
42019;DHT22;27703;51.980;5.848;2024-01-25T09:25:43;5.30;99.90
42019;DHT22;27703;51.980;5.848;2024-01-25T09:28:10;5.40;99.90
42019;DHT22;27703;51.980;5.848;2024-01-25T09:30:38;5.50;99.90
42019;DHT22;27703;51.980;5.848;2024-01-25T09:33:04;5.50;99.90
42019;DHT22;27703;51.980;5.848;2024-01-25T09:35:29;5.50;99.90
42019;DHT22;27703;51.980;5.848;2024-01-25T09:37:55;5.50;99.90
42019;DHT22;27703;51.980;5.848;2024-01-25T09:40:20;5.50;99.90
42019;DHT22;27703;51.980;5.848;2024-01-25T09:42:47;5.50;99.90
42019;DHT22;27703;51.980;5.848;2024-01-25T09:45:19;5.50;99.90
42019;DHT22;27703;51.980;5.848;2024-01-25T09:47:45;5.50;99.90
42019;DHT22;27703;51.980;5.848;2024-01-25T09:50:11;5.60;99.90
42019;DHT22;27703;51.980;5.848;2024-01-25T09:52:38;5.60;99.90
42019;DHT22;27703;51.980;5.848;2024-01-25T09:55:07;5.60;99.90
42019;DHT22;27703;51.980;5.848;2024-01-25T09:57:35;5.60;99.90
42019;DHT22;27703;51.980;5.848;2024-01-25T10:00:03;5.70;99.90
42019;DHT22;27703;51.980;5.848;2024-01-25T10:02:29;5.80;99.90
42019;DHT22;27703;51.980;5.848;2024-01-25T10:04:54;5.80;99.90
42019;DHT22;27703;51.980;5.848;2024-01-25T10:07:43;5.80;99.90
42019;DHT22;27703;51.980;5.848;2024-01-25T10:10:11;5.90;99.90
42019;DHT22;27703;51.980;5.848;2024-01-25T10:12:37;5.90;99.90
42019;DHT22;27703;51.980;5.848;2024-01-25T10:15:04;6.00;99.90
42019;DHT22;27703;51.980;5.848;2024-01-25T10:17:30;6.00;99.90
42019;DHT22;27703;51.980;5.848;2024-01-25T10:19:55;6.10;99.90
42019;DHT22;27703;51.980;5.848;2024-01-25T10:22:21;6.10;99.90
42019;DHT22;27703;51.980;5.848;2024-01-25T10:24:46;6.20;99.90
42019;DHT22;27703;51.980;5.848;2024-01-25T10:27:12;6.20;99.90
42019;DHT22;27703;51.980;5.848;2024-01-25T10:29:38;6.30;99.90
42019;DHT22;27703;51.980;5.848;2024-01-25T10:32:04;6.30;99.90
42019;DHT22;27703;51.980;5.848;2024-01-25T10:34:30;6.40;99.90
42019;DHT22;27703;51.980;5.848;2024-01-25T10:36:57;6.40;99.90
42019;DHT22;27703;51.980;5.848;2024-01-25T10:39:24;6.40;99.90
42019;DHT22;27703;51.980;5.848;2024-01-25T10:41:50;6.50;99.90
42019;DHT22;27703;51.980;5.848;2024-01-25T10:44:19;6.60;99.90
42019;DHT22;27703;51.980;5.848;2024-01-25T10:46:48;6.70;99.90
42019;DHT22;27703;51.980;5.848;2024-01-25T10:49:14;6.80;99.90
42019;DHT22;27703;51.980;5.848;2024-01-25T10:51:41;6.80;99.90
42019;DHT22;27703;51.980;5.848;2024-01-25T10:54:11;6.90;99.90
42019;DHT22;27703;51.980;5.848;2024-01-25T10:56:38;6.90;99.90
42019;DHT22;27703;51.980;5.848;2024-01-25T10:59:03;7.00;99.90
42019;DHT22;27703;51.980;5.848;2024-01-25T11:01:29;7.00;99.90
42019;DHT22;27703;51.980;5.848;2024-01-25T11:03:55;7.00;99.90
42019;DHT22;27703;51.980;5.848;2024-01-25T11:06:22;7.00;99.90
42019;DHT22;27703;51.980;5.848;2024-01-25T11:08:48;7.10;99.90
42019;DHT22;27703;51.980;5.848;2024-01-25T11:11:14;7.10;99.90
42019;DHT22;27703;51.980;5.848;2024-01-25T11:13:41;7.10;99.90
42019;DHT22;27703;51.980;5.848;2024-01-25T11:16:31;7.20;99.90
42019;DHT22;27703;51.980;5.848;2024-01-25T11:18:58;7.40;99.90
42019;DHT22;27703;51.980;5.848;2024-01-25T11:21:40;7.50;99.90
42019;DHT22;27703;51.980;5.848;2024-01-25T11:24:12;7.70;99.90
42019;DHT22;27703;51.980;5.848;2024-01-25T11:26:38;7.70;99.90
42019;DHT22;27703;51.980;5.848;2024-01-25T11:29:03;7.70;99.90
42019;DHT22;27703;51.980;5.848;2024-01-25T11:31:29;7.80;99.90
42019;DHT22;27703;51.980;5.848;2024-01-25T11:33:58;7.80;99.90
42019;DHT22;27703;51.980;5.848;2024-01-25T11:36:25;7.90;99.90
42019;DHT22;27703;51.980;5.848;2024-01-25T11:38:51;7.90;99.90
42019;DHT22;27703;51.980;5.848;2024-01-25T11:41:16;7.90;99.90
42019;DHT22;27703;51.980;5.848;2024-01-25T11:43:42;7.90;99.90
42019;DHT22;27703;51.980;5.848;2024-01-25T11:46:08;7.90;99.90
42019;DHT22;27703;51.980;5.848;2024-01-25T11:48:33;8.00;99.90
42019;DHT22;27703;51.980;5.848;2024-01-25T11:51:02;8.00;99.90
42019;DHT22;27703;51.980;5.848;2024-01-25T11:53:28;8.00;99.90
42019;DHT22;27703;51.980;5.848;2024-01-25T11:55:55;8.00;99.90
42019;DHT22;27703;51.980;5.848;2024-01-25T11:58:22;8.00;99.90
42019;DHT22;27703;51.980;5.848;2024-01-25T12:00:48;8.00;99.90
42019;DHT22;27703;51.980;5.848;2024-01-25T12:03:14;7.90;99.90
42019;DHT22;27703;51.980;5.848;2024-01-25T12:05:39;7.90;99.90
42019;DHT22;27703;51.980;5.848;2024-01-25T12:08:13;7.90;99.90
42019;DHT22;27703;51.980;5.848;2024-01-25T12:10:39;8.00;99.90
42019;DHT22;27703;51.980;5.848;2024-01-25T12:13:08;8.00;99.90
42019;DHT22;27703;51.980;5.848;2024-01-25T12:15:34;7.90;99.90
42019;DHT22;27703;51.980;5.848;2024-01-25T12:18:00;8.00;99.90
42019;DHT22;27703;51.980;5.848;2024-01-25T12:20:28;7.90;99.90
42019;DHT22;27703;51.980;5.848;2024-01-25T12:22:53;8.00;99.90
42019;DHT22;27703;51.980;5.848;2024-01-25T12:25:19;7.90;99.90
42019;DHT22;27703;51.980;5.848;2024-01-25T12:27:44;8.00;99.90
42019;DHT22;27703;51.980;5.848;2024-01-25T12:30:15;8.00;99.90
42019;DHT22;27703;51.980;5.848;2024-01-25T12:32:40;8.00;99.90
42019;DHT22;27703;51.980;5.848;2024-01-25T12:35:06;8.10;99.90
42019;DHT22;27703;51.980;5.848;2024-01-25T12:37:41;8.20;99.90
42019;DHT22;27703;51.980;5.848;2024-01-25T12:40:07;8.20;99.90
42019;DHT22;27703;51.980;5.848;2024-01-25T12:42:33;8.30;99.90
42019;DHT22;27703;51.980;5.848;2024-01-25T12:44:59;8.30;99.90
42019;DHT22;27703;51.980;5.848;2024-01-25T12:47:24;8.30;99.90
42019;DHT22;27703;51.980;5.848;2024-01-25T12:49:50;8.50;99.90
42019;DHT22;27703;51.980;5.848;2024-01-25T12:52:16;8.60;99.90
42019;DHT22;27703;51.980;5.848;2024-01-25T12:54:41;8.70;99.90
42019;DHT22;27703;51.980;5.848;2024-01-25T12:57:07;8.80;99.90
42019;DHT22;27703;51.980;5.848;2024-01-25T12:59:34;8.80;99.90
42019;DHT22;27703;51.980;5.848;2024-01-25T13:02:00;8.90;99.90
42019;DHT22;27703;51.980;5.848;2024-01-25T13:04:25;8.90;99.90
42019;DHT22;27703;51.980;5.848;2024-01-25T13:06:53;8.90;99.90
42019;DHT22;27703;51.980;5.848;2024-01-25T13:09:22;8.90;99.90
42019;DHT22;27703;51.980;5.848;2024-01-25T13:11:48;8.90;99.90
42019;DHT22;27703;51.980;5.848;2024-01-25T13:14:14;8.90;99.90
42019;DHT22;27703;51.980;5.848;2024-01-25T13:16:39;8.90;99.90
42019;DHT22;27703;51.980;5.848;2024-01-25T13:19:05;8.90;99.90
42019;DHT22;27703;51.980;5.848;2024-01-25T13:21:31;8.80;99.90
42019;DHT22;27703;51.980;5.848;2024-01-25T13:23:58;8.80;99.90
42019;DHT22;27703;51.980;5.848;2024-01-25T13:26:24;8.70;99.90
42019;DHT22;27703;51.980;5.848;2024-01-25T13:28:49;8.70;99.90
42019;DHT22;27703;51.980;5.848;2024-01-25T13:31:15;8.70;99.90
42019;DHT22;27703;51.980;5.848;2024-01-25T13:33:41;8.70;99.90
42019;DHT22;27703;51.980;5.848;2024-01-25T13:36:07;8.60;99.90
42019;DHT22;27703;51.980;5.848;2024-01-25T13:38:34;8.60;99.90
42019;DHT22;27703;51.980;5.848;2024-01-25T13:41:00;8.60;99.90
42019;DHT22;27703;51.980;5.848;2024-01-25T13:43:26;8.60;99.90
42019;DHT22;27703;51.980;5.848;2024-01-25T13:45:51;8.60;99.90
42019;DHT22;27703;51.980;5.848;2024-01-25T13:48:17;8.50;99.90
42019;DHT22;27703;51.980;5.848;2024-01-25T13:50:44;8.50;99.90
42019;DHT22;27703;51.980;5.848;2024-01-25T13:53:09;8.60;99.90
42019;DHT22;27703;51.980;5.848;2024-01-25T13:55:36;8.50;99.90
42019;DHT22;27703;51.980;5.848;2024-01-25T13:58:01;8.50;99.90
42019;DHT22;27703;51.980;5.848;2024-01-25T14:00:27;8.50;99.90
42019;DHT22;27703;51.980;5.848;2024-01-25T14:02:53;8.50;99.90
42019;DHT22;27703;51.980;5.848;2024-01-25T14:05:19;8.50;99.90
42019;DHT22;27703;51.980;5.848;2024-01-25T14:07:44;8.50;99.90
42019;DHT22;27703;51.980;5.848;2024-01-25T14:10:10;8.50;99.90
42019;DHT22;27703;51.980;5.848;2024-01-25T14:12:35;8.50;99.90
42019;DHT22;27703;51.980;5.848;2024-01-25T14:15:01;8.50;99.90
42019;DHT22;27703;51.980;5.848;2024-01-25T14:17:26;8.50;99.90
42019;DHT22;27703;51.980;5.848;2024-01-25T14:19:53;8.50;99.90
42019;DHT22;27703;51.980;5.848;2024-01-25T14:22:19;8.40;99.90
42019;DHT22;27703;51.980;5.848;2024-01-25T14:24:44;8.40;99.90
42019;DHT22;27703;51.980;5.848;2024-01-25T14:27:10;8.40;99.90
42019;DHT22;27703;51.980;5.848;2024-01-25T14:29:35;8.40;99.90
42019;DHT22;27703;51.980;5.848;2024-01-25T14:32:01;8.40;99.90
42019;DHT22;27703;51.980;5.848;2024-01-25T14:34:27;8.40;99.90
42019;DHT22;27703;51.980;5.848;2024-01-25T14:36:53;8.30;99.90
42019;DHT22;27703;51.980;5.848;2024-01-25T14:39:18;8.30;99.90
42019;DHT22;27703;51.980;5.848;2024-01-25T14:41:44;8.30;99.90
42019;DHT22;27703;51.980;5.848;2024-01-25T14:44:10;8.30;99.90
42019;DHT22;27703;51.980;5.848;2024-01-25T14:46:36;8.30;99.90
42019;DHT22;27703;51.980;5.848;2024-01-25T14:49:02;8.30;99.90
42019;DHT22;27703;51.980;5.848;2024-01-25T14:51:27;8.30;99.90
42019;DHT22;27703;51.980;5.848;2024-01-25T14:53:53;8.30;99.90
42019;DHT22;27703;51.980;5.848;2024-01-25T14:56:19;8.30;99.90
42019;DHT22;27703;51.980;5.848;2024-01-25T14:58:44;8.20;99.90
42019;DHT22;27703;51.980;5.848;2024-01-25T15:01:14;8.20;99.90
42019;DHT22;27703;51.980;5.848;2024-01-25T15:03:42;8.20;99.90
42019;DHT22;27703;51.980;5.848;2024-01-25T15:06:08;8.20;99.90
42019;DHT22;27703;51.980;5.848;2024-01-25T15:08:33;8.20;99.90
42019;DHT22;27703;51.980;5.848;2024-01-25T15:10:59;8.20;99.90
42019;DHT22;27703;51.980;5.848;2024-01-25T15:13:25;8.20;99.90
42019;DHT22;27703;51.980;5.848;2024-01-25T15:15:50;8.20;99.90
42019;DHT22;27703;51.980;5.848;2024-01-25T15:18:16;8.20;99.90
42019;DHT22;27703;51.980;5.848;2024-01-25T15:20:43;8.20;99.90
42019;DHT22;27703;51.980;5.848;2024-01-25T15:23:08;8.20;99.90
42019;DHT22;27703;51.980;5.848;2024-01-25T15:25:34;8.20;99.90
42019;DHT22;27703;51.980;5.848;2024-01-25T15:27:59;8.20;99.90
42019;DHT22;27703;51.980;5.848;2024-01-25T15:30:25;8.10;99.90
42019;DHT22;27703;51.980;5.848;2024-01-25T15:32:51;8.20;99.90
42019;DHT22;27703;51.980;5.848;2024-01-25T15:35:17;8.10;99.90
42019;DHT22;27703;51.980;5.848;2024-01-25T15:37:42;8.10;99.90